Terminal Aerodrome Forecast
Issued by NWS

Home | Current Version | Previous Version | Text Only | Print | Product List | Glossary On
Versions: 1 2 3 4 5 6 7 8 9 10 11 12 13 14
738
FTUS43 KMQT 211120
TAFIWD
TAF
KIWD 211120Z 2112/2212 29020G32KT 5SM -SHSN OVC020
     FM211500 32019G32KT 3SM -SHSN BLSN OVC020
     FM212100 31016G27KT P6SM -SHSN BKN030
     FM220500 30009KT 4SM -SHSN BKN025
     FM220600 30009KT P6SM BKN020
     FM220800 28007KT P6SM BKN040
     FM220900 28006KT P6SM BKN030
     FM221000 27006KT P6SM BKN040=

USA.gov is the U.S. government's official web portal to all federal, state and local government web resources and services.